sensor_id;sensor_type;location;lat;lon;timestamp;pressure;altitude;pressure_sealevel;temperature
30765;BMP180;494;48.744;10.106;2023-05-14T00:00:18;95669.00;;;13.70
30765;BMP180;494;48.744;10.106;2023-05-14T00:02:47;95585.00;;;13.70
30765;BMP180;494;48.744;10.106;2023-05-14T00:05:16;95429.00;;;13.70
30765;BMP180;494;48.744;10.106;2023-05-14T00:07:45;95492.00;;;13.60
30765;BMP180;494;48.744;10.106;2023-05-14T00:10:14;95644.00;;;13.40
30765;BMP180;494;48.744;10.106;2023-05-14T00:12:43;95642.00;;;13.80
30765;BMP180;494;48.744;10.106;2023-05-14T00:15:12;95429.00;;;13.70
30765;BMP180;494;48.744;10.106;2023-05-14T00:17:43;95642.00;;;13.70
30765;BMP180;494;48.744;10.106;2023-05-14T00:20:12;95647.00;;;13.60
30765;BMP180;494;48.744;10.106;2023-05-14T00:22:41;95500.00;;;13.80
30765;BMP180;494;48.744;10.106;2023-05-14T00:25:10;95631.00;;;13.60
30765;BMP180;494;48.744;10.106;2023-05-14T00:27:39;95632.00;;;13.60
30765;BMP180;494;48.744;10.106;2023-05-14T00:30:08;95622.00;;;13.70
30765;BMP180;494;48.744;10.106;2023-05-14T00:32:37;95617.00;;;13.30
30765;BMP180;494;48.744;10.106;2023-05-14T00:35:08;95619.00;;;13.70
30765;BMP180;494;48.744;10.106;2023-05-14T00:37:39;95611.00;;;13.60
30765;BMP180;494;48.744;10.106;2023-05-14T00:40:09;95537.00;;;13.70
30765;BMP180;494;48.744;10.106;2023-05-14T00:42:42;95555.00;;;13.70
30765;BMP180;494;48.744;10.106;2023-05-14T00:45:11;95392.00;;;13.70
30765;BMP180;494;48.744;10.106;2023-05-14T00:47:40;95623.00;;;13.70
30765;BMP180;494;48.744;10.106;2023-05-14T00:50:12;95311.00;;;13.50
30765;BMP180;494;48.744;10.106;2023-05-14T00:52:42;95570.00;;;13.70
30765;BMP180;494;48.744;10.106;2023-05-14T00:55:12;95625.00;;;13.70
30765;BMP180;494;48.744;10.106;2023-05-14T00:57:43;95547.00;;;13.70
30765;BMP180;494;48.744;10.106;2023-05-14T01:00:14;95608.00;;;13.80
30765;BMP180;494;48.744;10.106;2023-05-14T01:02:43;95452.00;;;13.80
30765;BMP180;494;48.744;10.106;2023-05-14T01:05:14;95614.00;;;13.80
30765;BMP180;494;48.744;10.106;2023-05-14T01:07:52;95606.00;;;13.80
30765;BMP180;494;48.744;10.106;2023-05-14T01:10:31;95513.00;;;13.70
30765;BMP180;494;48.744;10.106;2023-05-14T01:13:09;95609.00;;;13.70
30765;BMP180;494;48.744;10.106;2023-05-14T01:15:42;95614.00;;;13.80
30765;BMP180;494;48.744;10.106;2023-05-14T01:18:16;95381.00;;;13.80
30765;BMP180;494;48.744;10.106;2023-05-14T01:20:50;95610.00;;;13.70
30765;BMP180;494;48.744;10.106;2023-05-14T01:23:21;95616.00;;;13.80
30765;BMP180;494;48.744;10.106;2023-05-14T01:25:51;95609.00;;;13.80
30765;BMP180;494;48.744;10.106;2023-05-14T01:28:27;95482.00;;;13.80
30765;BMP180;494;48.744;10.106;2023-05-14T01:31:06;95609.00;;;13.90
30765;BMP180;494;48.744;10.106;2023-05-14T01:33:41;95609.00;;;13.90
30765;BMP180;494;48.744;10.106;2023-05-14T01:36:10;95609.00;;;13.90
30765;BMP180;494;48.744;10.106;2023-05-14T01:38:42;95480.00;;;13.70
30765;BMP180;494;48.744;10.106;2023-05-14T01:41:14;95603.00;;;13.70
30765;BMP180;494;48.744;10.106;2023-05-14T01:43:44;95723.00;;;13.60
30765;BMP180;494;48.744;10.106;2023-05-14T01:46:16;94589.00;;;13.70
30765;BMP180;494;48.744;10.106;2023-05-14T01:48:45;95582.00;;;13.70
30765;BMP180;494;48.744;10.106;2023-05-14T01:51:14;95605.00;;;13.70
30765;BMP180;494;48.744;10.106;2023-05-14T01:53:44;95605.00;;;13.50
30765;BMP180;494;48.744;10.106;2023-05-14T01:56:13;95601.00;;;13.50
30765;BMP180;494;48.744;10.106;2023-05-14T01:58:42;95607.00;;;13.50
30765;BMP180;494;48.744;10.106;2023-05-14T02:01:10;95293.00;;;13.50
30765;BMP180;494;48.744;10.106;2023-05-14T02:03:39;95543.00;;;13.20
30765;BMP180;494;48.744;10.106;2023-05-14T02:06:07;95599.00;;;13.30
30765;BMP180;494;48.744;10.106;2023-05-14T02:08:37;95598.00;;;13.20
30765;BMP180;494;48.744;10.106;2023-05-14T02:11:07;95598.00;;;13.20
30765;BMP180;494;48.744;10.106;2023-05-14T02:13:36;94561.00;;;13.30
30765;BMP180;494;48.744;10.106;2023-05-14T02:16:07;95216.00;;;13.30
30765;BMP180;494;48.744;10.106;2023-05-14T02:18:36;95466.00;;;13.40
30765;BMP180;494;48.744;10.106;2023-05-14T02:21:05;95595.00;;;13.30
30765;BMP180;494;48.744;10.106;2023-05-14T02:23:34;95185.00;;;13.40
30765;BMP180;494;48.744;10.106;2023-05-14T02:26:10;95604.00;;;13.40
30765;BMP180;494;48.744;10.106;2023-05-14T02:28:38;95598.00;;;13.50
30765;BMP180;494;48.744;10.106;2023-05-14T02:31:07;95034.00;;;13.40
30765;BMP180;494;48.744;10.106;2023-05-14T02:33:35;95599.00;;;13.20
30765;BMP180;494;48.744;10.106;2023-05-14T02:36:04;95603.00;;;13.20
30765;BMP180;494;48.744;10.106;2023-05-14T02:38:33;95611.00;;;13.10
30765;BMP180;494;48.744;10.106;2023-05-14T02:41:01;95601.00;;;13.10
30765;BMP180;494;48.744;10.106;2023-05-14T02:43:31;95600.00;;;13.10
30765;BMP180;494;48.744;10.106;2023-05-14T02:46:00;95599.00;;;13.20
30765;BMP180;494;48.744;10.106;2023-05-14T02:48:29;95356.00;;;13.30
30765;BMP180;494;48.744;10.106;2023-05-14T02:50:57;95599.00;;;13.30
30765;BMP180;494;48.744;10.106;2023-05-14T02:53:26;95438.00;;;13.20
30765;BMP180;494;48.744;10.106;2023-05-14T02:55:55;95605.00;;;13.30
30765;BMP180;494;48.744;10.106;2023-05-14T02:58:24;95473.00;;;13.30
30765;BMP180;494;48.744;10.106;2023-05-14T03:00:56;95596.00;;;13.20
30765;BMP180;494;48.744;10.106;2023-05-14T03:03:24;95598.00;;;12.80
30765;BMP180;494;48.744;10.106;2023-05-14T03:05:54;95380.00;;;13.10
30765;BMP180;494;48.744;10.106;2023-05-14T03:08:22;95598.00;;;13.20
30765;BMP180;494;48.744;10.106;2023-05-14T03:10:51;95594.00;;;13.10
30765;BMP180;494;48.744;10.106;2023-05-14T03:13:19;95593.00;;;13.30
30765;BMP180;494;48.744;10.106;2023-05-14T03:15:48;94898.00;;;13.30
30765;BMP180;494;48.744;10.106;2023-05-14T03:18:22;95358.00;;;13.30
30765;BMP180;494;48.744;10.106;2023-05-14T03:20:51;95091.00;;;13.30
30765;BMP180;494;48.744;10.106;2023-05-14T03:23:20;95589.00;;;13.40
30765;BMP180;494;48.744;10.106;2023-05-14T03:25:48;95514.00;;;13.40
30765;BMP180;494;48.744;10.106;2023-05-14T03:28:17;95573.00;;;13.40
30765;BMP180;494;48.744;10.106;2023-05-14T03:30:45;95451.00;;;13.40
30765;BMP180;494;48.744;10.106;2023-05-14T03:33:14;95586.00;;;13.50
30765;BMP180;494;48.744;10.106;2023-05-14T03:35:44;95582.00;;;13.30
30765;BMP180;494;48.744;10.106;2023-05-14T03:38:13;95580.00;;;13.30
30765;BMP180;494;48.744;10.106;2023-05-14T03:40:43;95505.00;;;13.20
30765;BMP180;494;48.744;10.106;2023-05-14T03:43:12;95578.00;;;13.10
30765;BMP180;494;48.744;10.106;2023-05-14T03:45:40;95582.00;;;13.20
30765;BMP180;494;48.744;10.106;2023-05-14T03:48:09;95581.00;;;13.20
30765;BMP180;494;48.744;10.106;2023-05-14T03:50:38;95588.00;;;13.30
30765;BMP180;494;48.744;10.106;2023-05-14T03:53:08;95584.00;;;13.20
30765;BMP180;494;48.744;10.106;2023-05-14T03:55:37;95465.00;;;13.40
30765;BMP180;494;48.744;10.106;2023-05-14T03:58:06;95336.00;;;13.40
30765;BMP180;494;48.744;10.106;2023-05-14T04:00:40;95572.00;;;13.00
30765;BMP180;494;48.744;10.106;2023-05-14T04:03:09;95400.00;;;13.30
30765;BMP180;494;48.744;10.106;2023-05-14T04:05:38;95617.00;;;13.30
30765;BMP180;494;48.744;10.106;2023-05-14T04:08:08;95586.00;;;13.30
30765;BMP180;494;48.744;10.106;2023-05-14T04:10:36;95421.00;;;13.20
30765;BMP180;494;48.744;10.106;2023-05-14T04:13:05;95577.00;;;13.20
30765;BMP180;494;48.744;10.106;2023-05-14T04:15:34;95588.00;;;13.30
30765;BMP180;494;48.744;10.106;2023-05-14T04:18:05;95393.00;;;13.00
30765;BMP180;494;48.744;10.106;2023-05-14T04:20:34;95587.00;;;13.30
30765;BMP180;494;48.744;10.106;2023-05-14T04:23:03;95482.00;;;13.50
30765;BMP180;494;48.744;10.106;2023-05-14T04:25:34;94955.00;;;13.50
30765;BMP180;494;48.744;10.106;2023-05-14T04:28:03;95574.00;;;13.50
30765;BMP180;494;48.744;10.106;2023-05-14T04:30:32;95391.00;;;13.40
30765;BMP180;494;48.744;10.106;2023-05-14T04:33:00;95266.00;;;13.40
30765;BMP180;494;48.744;10.106;2023-05-14T04:35:30;95573.00;;;13.50
30765;BMP180;494;48.744;10.106;2023-05-14T04:37:59;95565.00;;;13.50
30765;BMP180;494;48.744;10.106;2023-05-14T04:40:27;95571.00;;;13.50
30765;BMP180;494;48.744;10.106;2023-05-14T04:42:58;95580.00;;;13.60
30765;BMP180;494;48.744;10.106;2023-05-14T04:45:27;95180.00;;;13.60
30765;BMP180;494;48.744;10.106;2023-05-14T04:47:57;95398.00;;;13.60
30765;BMP180;494;48.744;10.106;2023-05-14T04:50:26;95614.00;;;13.70
30765;BMP180;494;48.744;10.106;2023-05-14T04:52:55;95576.00;;;13.80
30765;BMP180;494;48.744;10.106;2023-05-14T04:55:23;95575.00;;;13.80
30765;BMP180;494;48.744;10.106;2023-05-14T04:57:52;94814.00;;;13.70
30765;BMP180;494;48.744;10.106;2023-05-14T05:00:22;95580.00;;;13.70
30765;BMP180;494;48.744;10.106;2023-05-14T05:02:52;95575.00;;;13.60
30765;BMP180;494;48.744;10.106;2023-05-14T05:05:21;95418.00;;;13.70
30765;BMP180;494;48.744;10.106;2023-05-14T05:07:49;95358.00;;;13.70
30765;BMP180;494;48.744;10.106;2023-05-14T05:10:18;95591.00;;;13.70
30765;BMP180;494;48.744;10.106;2023-05-14T05:12:47;95574.00;;;13.70
30765;BMP180;494;48.744;10.106;2023-05-14T05:15:16;95574.00;;;13.70
30765;BMP180;494;48.744;10.106;2023-05-14T05:17:45;95084.00;;;13.40
30765;BMP180;494;48.744;10.106;2023-05-14T05:20:15;95434.00;;;14.00
30765;BMP180;494;48.744;10.106;2023-05-14T05:22:43;95453.00;;;13.30
30765;BMP180;494;48.744;10.106;2023-05-14T05:25:12;95568.00;;;13.90
30765;BMP180;494;48.744;10.106;2023-05-14T05:27:40;95053.00;;;14.00
30765;BMP180;494;48.744;10.106;2023-05-14T05:30:10;95565.00;;;14.10
30765;BMP180;494;48.744;10.106;2023-05-14T05:32:39;95363.00;;;14.10
30765;BMP180;494;48.744;10.106;2023-05-14T05:35:10;95558.00;;;14.10
30765;BMP180;494;48.744;10.106;2023-05-14T05:37:38;95561.00;;;14.30
30765;BMP180;494;48.744;10.106;2023-05-14T05:40:08;95575.00;;;14.30
30765;BMP180;494;48.744;10.106;2023-05-14T05:42:37;95540.00;;;14.50
30765;BMP180;494;48.744;10.106;2023-05-14T05:45:07;95388.00;;;14.50
30765;BMP180;494;48.744;10.106;2023-05-14T05:47:36;95549.00;;;14.50
30765;BMP180;494;48.744;10.106;2023-05-14T05:50:07;95547.00;;;14.60
30765;BMP180;494;48.744;10.106;2023-05-14T05:52:37;95560.00;;;14.70
30765;BMP180;494;48.744;10.106;2023-05-14T05:55:07;95560.00;;;14.70
30765;BMP180;494;48.744;10.106;2023-05-14T05:57:36;95563.00;;;14.70
30765;BMP180;494;48.744;10.106;2023-05-14T06:00:06;95600.00;;;14.70
30765;BMP180;494;48.744;10.106;2023-05-14T06:02:40;95554.00;;;14.80
30765;BMP180;494;48.744;10.106;2023-05-14T06:05:10;95559.00;;;14.90
30765;BMP180;494;48.744;10.106;2023-05-14T06:07:40;95566.00;;;14.80
30765;BMP180;494;48.744;10.106;2023-05-14T06:10:09;95374.00;;;14.90
30765;BMP180;494;48.744;10.106;2023-05-14T06:12:38;95562.00;;;15.10
30765;BMP180;494;48.744;10.106;2023-05-14T06:15:07;95445.00;;;15.20
30765;BMP180;494;48.744;10.106;2023-05-14T06:17:36;95448.00;;;15.40
30765;BMP180;494;48.744;10.106;2023-05-14T06:20:06;95566.00;;;15.50
30765;BMP180;494;48.744;10.106;2023-05-14T06:22:35;95562.00;;;15.60
30765;BMP180;494;48.744;10.106;2023-05-14T06:25:06;95564.00;;;15.50
30765;BMP180;494;48.744;10.106;2023-05-14T06:27:35;95563.00;;;15.50
30765;BMP180;494;48.744;10.106;2023-05-14T06:30:05;95366.00;;;15.40
30765;BMP180;494;48.744;10.106;2023-05-14T06:32:34;95566.00;;;15.80
30765;BMP180;494;48.744;10.106;2023-05-14T06:35:04;95559.00;;;15.80
30765;BMP180;494;48.744;10.106;2023-05-14T06:37:32;95563.00;;;15.80
30765;BMP180;494;48.744;10.106;2023-05-14T06:40:01;95564.00;;;16.00
30765;BMP180;494;48.744;10.106;2023-05-14T06:42:31;95569.00;;;15.90
30765;BMP180;494;48.744;10.106;2023-05-14T06:45:00;95571.00;;;15.80
30765;BMP180;494;48.744;10.106;2023-05-14T06:47:28;95574.00;;;15.80
30765;BMP180;494;48.744;10.106;2023-05-14T06:49:57;95570.00;;;15.90
30765;BMP180;494;48.744;10.106;2023-05-14T06:52:28;95401.00;;;15.80
30765;BMP180;494;48.744;10.106;2023-05-14T06:54:56;95423.00;;;15.50
30765;BMP180;494;48.744;10.106;2023-05-14T06:57:26;95290.00;;;15.70
30765;BMP180;494;48.744;10.106;2023-05-14T06:59:56;95578.00;;;15.60
30765;BMP180;494;48.744;10.106;2023-05-14T07:02:25;95116.00;;;15.70
30765;BMP180;494;48.744;10.106;2023-05-14T07:04:53;95080.00;;;15.00
30765;BMP180;494;48.744;10.106;2023-05-14T07:07:22;95123.00;;;14.60
30765;BMP180;494;48.744;10.106;2023-05-14T07:09:50;95372.00;;;15.40
30765;BMP180;494;48.744;10.106;2023-05-14T07:12:19;95522.00;;;15.50
30765;BMP180;494;48.744;10.106;2023-05-14T07:14:47;95160.00;;;15.60
30765;BMP180;494;48.744;10.106;2023-05-14T07:17:18;95608.00;;;15.80
30765;BMP180;494;48.744;10.106;2023-05-14T07:19:46;95102.00;;;16.00
30765;BMP180;494;48.744;10.106;2023-05-14T07:22:16;95435.00;;;16.10
30765;BMP180;494;48.744;10.106;2023-05-14T07:24:44;95633.00;;;15.10
30765;BMP180;494;48.744;10.106;2023-05-14T07:27:13;95253.00;;;16.50
30765;BMP180;494;48.744;10.106;2023-05-14T07:29:43;95568.00;;;16.40
30765;BMP180;494;48.744;10.106;2023-05-14T07:32:11;95285.00;;;16.50
30765;BMP180;494;48.744;10.106;2023-05-14T07:34:43;95528.00;;;16.60
30765;BMP180;494;48.744;10.106;2023-05-14T07:37:12;95442.00;;;16.80
30765;BMP180;494;48.744;10.106;2023-05-14T07:39:41;95556.00;;;16.80
30765;BMP180;494;48.744;10.106;2023-05-14T07:42:10;95276.00;;;17.00
30765;BMP180;494;48.744;10.106;2023-05-14T07:44:54;95556.00;;;16.50
30765;BMP180;494;48.744;10.106;2023-05-14T07:47:22;95021.00;;;16.10
30765;BMP180;494;48.744;10.106;2023-05-14T07:49:55;94833.00;;;16.20
30765;BMP180;494;48.744;10.106;2023-05-14T07:52:24;95424.00;;;16.90
30765;BMP180;494;48.744;10.106;2023-05-14T07:54:53;94899.00;;;16.20
30765;BMP180;494;48.744;10.106;2023-05-14T07:57:22;95388.00;;;16.90
30765;BMP180;494;48.744;10.106;2023-05-14T07:59:51;95611.00;;;15.00
30765;BMP180;494;48.744;10.106;2023-05-14T08:02:19;95603.00;;;16.00
30765;BMP180;494;48.744;10.106;2023-05-14T08:04:48;94916.00;;;15.40
30765;BMP180;494;48.744;10.106;2023-05-14T08:07:19;95076.00;;;14.90
30765;BMP180;494;48.744;10.106;2023-05-14T08:09:48;95591.00;;;16.60
30765;BMP180;494;48.744;10.106;2023-05-14T08:12:17;95662.00;;;16.60
30765;BMP180;494;48.744;10.106;2023-05-14T08:14:46;95285.00;;;16.90
30765;BMP180;494;48.744;10.106;2023-05-14T08:17:15;95563.00;;;16.50
30765;BMP180;494;48.744;10.106;2023-05-14T08:19:44;95560.00;;;16.90
30765;BMP180;494;48.744;10.106;2023-05-14T08:22:14;95626.00;;;17.10
30765;BMP180;494;48.744;10.106;2023-05-14T08:24:45;94646.00;;;15.90
30765;BMP180;494;48.744;10.106;2023-05-14T08:27:14;95101.00;;;17.40
30765;BMP180;494;48.744;10.106;2023-05-14T08:29:43;94906.00;;;17.60
30765;BMP180;494;48.744;10.106;2023-05-14T08:32:13;95430.00;;;17.70
30765;BMP180;494;48.744;10.106;2023-05-14T08:34:50;95571.00;;;17.70
30765;BMP180;494;48.744;10.106;2023-05-14T08:37:19;95496.00;;;17.70
30765;BMP180;494;48.744;10.106;2023-05-14T08:39:49;95362.00;;;17.70
30765;BMP180;494;48.744;10.106;2023-05-14T08:42:20;95453.00;;;18.10
30765;BMP180;494;48.744;10.106;2023-05-14T08:44:57;95490.00;;;18.00
30765;BMP180;494;48.744;10.106;2023-05-14T08:47:29;95465.00;;;18.10
30765;BMP180;494;48.744;10.106;2023-05-14T08:50:03;95537.00;;;17.80
30765;BMP180;494;48.744;10.106;2023-05-14T08:52:33;95443.00;;;17.80
30765;BMP180;494;48.744;10.106;2023-05-14T08:55:05;95396.00;;;18.10
30765;BMP180;494;48.744;10.106;2023-05-14T08:57:34;95467.00;;;18.20
30765;BMP180;494;48.744;10.106;2023-05-14T09:00:05;95299.00;;;18.10
30765;BMP180;494;48.744;10.106;2023-05-14T09:02:39;95382.00;;;17.30
30765;BMP180;494;48.744;10.106;2023-05-14T09:05:09;95465.00;;;17.10
30765;BMP180;494;48.744;10.106;2023-05-14T09:07:38;95537.00;;;17.60
30765;BMP180;494;48.744;10.106;2023-05-14T09:10:10;95530.00;;;17.40
30765;BMP180;494;48.744;10.106;2023-05-14T09:12:39;95389.00;;;17.30
30765;BMP180;494;48.744;10.106;2023-05-14T09:15:09;95463.00;;;17.10
30765;BMP180;494;48.744;10.106;2023-05-14T09:17:41;95452.00;;;17.30
30765;BMP180;494;48.744;10.106;2023-05-14T09:20:12;95379.00;;;17.20
30765;BMP180;494;48.744;10.106;2023-05-14T09:22:41;95124.00;;;17.20
30765;BMP180;494;48.744;10.106;2023-05-14T09:25:11;95541.00;;;17.10
30765;BMP180;494;48.744;10.106;2023-05-14T09:27:41;95170.00;;;17.00
30765;BMP180;494;48.744;10.106;2023-05-14T09:30:11;95387.00;;;17.30
30765;BMP180;494;48.744;10.106;2023-05-14T09:32:42;95353.00;;;17.60
30765;BMP180;494;48.744;10.106;2023-05-14T09:35:15;95525.00;;;17.60
30765;BMP180;494;48.744;10.106;2023-05-14T09:37:47;95219.00;;;16.30
30765;BMP180;494;48.744;10.106;2023-05-14T09:40:20;95420.00;;;17.90
30765;BMP180;494;48.744;10.106;2023-05-14T09:42:50;95459.00;;;18.20
30765;BMP180;494;48.744;10.106;2023-05-14T09:45:18;95372.00;;;18.60
30765;BMP180;494;48.744;10.106;2023-05-14T09:47:47;95402.00;;;19.20
30765;BMP180;494;48.744;10.106;2023-05-14T09:50:16;95433.00;;;19.90
30765;BMP180;494;48.744;10.106;2023-05-14T09:52:46;95373.00;;;20.20
30765;BMP180;494;48.744;10.106;2023-05-14T09:55:17;95356.00;;;20.40
30765;BMP180;494;48.744;10.106;2023-05-14T09:57:46;95493.00;;;20.00
30765;BMP180;494;48.744;10.106;2023-05-14T10:00:15;95432.00;;;20.00
30765;BMP180;494;48.744;10.106;2023-05-14T10:02:50;95492.00;;;20.00
30765;BMP180;494;48.744;10.106;2023-05-14T10:05:23;95533.00;;;20.60
30765;BMP180;494;48.744;10.106;2023-05-14T10:07:56;95489.00;;;20.40
30765;BMP180;494;48.744;10.106;2023-05-14T10:10:28;95502.00;;;20.50
30765;BMP180;494;48.744;10.106;2023-05-14T10:13:03;95495.00;;;20.40
30765;BMP180;494;48.744;10.106;2023-05-14T10:15:38;95488.00;;;20.50
30765;BMP180;494;48.744;10.106;2023-05-14T10:18:16;95486.00;;;20.60
30765;BMP180;494;48.744;10.106;2023-05-14T10:20:55;95432.00;;;20.80
30765;BMP180;494;48.744;10.106;2023-05-14T10:23:24;95484.00;;;21.30
30765;BMP180;494;48.744;10.106;2023-05-14T10:25:55;95478.00;;;21.20
30765;BMP180;494;48.744;10.106;2023-05-14T10:28:25;95481.00;;;21.10
30765;BMP180;494;48.744;10.106;2023-05-14T10:30:53;95480.00;;;21.30
30765;BMP180;494;48.744;10.106;2023-05-14T10:33:22;95214.00;;;21.10
30765;BMP180;494;48.744;10.106;2023-05-14T10:35:56;95482.00;;;21.50
30765;BMP180;494;48.744;10.106;2023-05-14T10:38:27;95420.00;;;21.90
30765;BMP180;494;48.744;10.106;2023-05-14T10:41:00;95463.00;;;22.80
30765;BMP180;494;48.744;10.106;2023-05-14T10:43:35;95460.00;;;22.70
30765;BMP180;494;48.744;10.106;2023-05-14T10:46:05;95355.00;;;22.20
30765;BMP180;494;48.744;10.106;2023-05-14T10:48:36;95477.00;;;22.50
30765;BMP180;494;48.744;10.106;2023-05-14T10:51:07;95364.00;;;22.30
30765;BMP180;494;48.744;10.106;2023-05-14T10:53:39;95342.00;;;22.10
30765;BMP180;494;48.744;10.106;2023-05-14T10:56:12;95444.00;;;22.00
30765;BMP180;494;48.744;10.106;2023-05-14T10:58:43;95449.00;;;21.50
30765;BMP180;494;48.744;10.106;2023-05-14T11:01:13;95361.00;;;21.50
30765;BMP180;494;48.744;10.106;2023-05-14T11:03:43;95330.00;;;21.00
30765;BMP180;494;48.744;10.106;2023-05-14T11:06:15;95443.00;;;21.10
30765;BMP180;494;48.744;10.106;2023-05-14T11:08:44;95434.00;;;21.30
30765;BMP180;494;48.744;10.106;2023-05-14T11:11:17;95412.00;;;21.70
30765;BMP180;494;48.744;10.106;2023-05-14T11:13:47;95444.00;;;21.60
30765;BMP180;494;48.744;10.106;2023-05-14T11:16:17;95434.00;;;21.90
30765;BMP180;494;48.744;10.106;2023-05-14T11:19:00;95248.00;;;20.90
30765;BMP180;494;48.744;10.106;2023-05-14T11:21:30;95427.00;;;20.80
30765;BMP180;494;48.744;10.106;2023-05-14T11:24:01;95437.00;;;21.00
30765;BMP180;494;48.744;10.106;2023-05-14T11:26:34;95434.00;;;21.10
30765;BMP180;494;48.744;10.106;2023-05-14T11:29:04;95336.00;;;21.30
30765;BMP180;494;48.744;10.106;2023-05-14T11:31:35;95426.00;;;21.20
30765;BMP180;494;48.744;10.106;2023-05-14T11:34:06;95432.00;;;21.00
30765;BMP180;494;48.744;10.106;2023-05-14T11:36:39;95271.00;;;21.90
30765;BMP180;494;48.744;10.106;2023-05-14T11:39:08;95338.00;;;22.20
30765;BMP180;494;48.744;10.106;2023-05-14T11:41:43;95407.00;;;22.00
30765;BMP180;494;48.744;10.106;2023-05-14T11:44:12;95308.00;;;21.30
30765;BMP180;494;48.744;10.106;2023-05-14T11:46:54;95375.00;;;21.30
30765;BMP180;494;48.744;10.106;2023-05-14T11:49:23;95338.00;;;20.90
30765;BMP180;494;48.744;10.106;2023-05-14T11:51:58;95458.00;;;21.10
30765;BMP180;494;48.744;10.106;2023-05-14T11:54:27;95376.00;;;21.30
30765;BMP180;494;48.744;10.106;2023-05-14T11:57:00;95413.00;;;21.40
30765;BMP180;494;48.744;10.106;2023-05-14T11:59:32;95191.00;;;21.70
30765;BMP180;494;48.744;10.106;2023-05-14T12:02:02;95411.00;;;21.50
30765;BMP180;494;48.744;10.106;2023-05-14T12:04:31;95288.00;;;21.80
30765;BMP180;494;48.744;10.106;2023-05-14T12:07:08;95404.00;;;21.50
30765;BMP180;494;48.744;10.106;2023-05-14T12:09:40;95411.00;;;21.00
30765;BMP180;494;48.744;10.106;2023-05-14T12:12:13;95298.00;;;21.20
30765;BMP180;494;48.744;10.106;2023-05-14T12:14:43;95418.00;;;21.00
30765;BMP180;494;48.744;10.106;2023-05-14T12:17:16;95414.00;;;20.80
30765;BMP180;494;48.744;10.106;2023-05-14T12:19:47;95418.00;;;19.90
30765;BMP180;494;48.744;10.106;2023-05-14T12:22:19;95413.00;;;20.30
30765;BMP180;494;48.744;10.106;2023-05-14T12:24:52;95412.00;;;20.20
30765;BMP180;494;48.744;10.106;2023-05-14T12:27:25;95410.00;;;19.90
30765;BMP180;494;48.744;10.106;2023-05-14T12:29:58;95414.00;;;19.60
30765;BMP180;494;48.744;10.106;2023-05-14T12:32:46;95298.00;;;19.90
30765;BMP180;494;48.744;10.106;2023-05-14T12:35:20;95336.00;;;19.50
30765;BMP180;494;48.744;10.106;2023-05-14T12:37:50;95339.00;;;19.60
30765;BMP180;494;48.744;10.106;2023-05-14T12:40:18;95301.00;;;19.20
30765;BMP180;494;48.744;10.106;2023-05-14T12:42:49;95384.00;;;19.60
30765;BMP180;494;48.744;10.106;2023-05-14T12:45:19;95408.00;;;19.70
30765;BMP180;494;48.744;10.106;2023-05-14T12:47:48;95274.00;;;19.60
30765;BMP180;494;48.744;10.106;2023-05-14T12:50:18;95453.00;;;18.30
30765;BMP180;494;48.744;10.106;2023-05-14T12:52:47;95295.00;;;19.40
30765;BMP180;494;48.744;10.106;2023-05-14T12:55:16;95396.00;;;19.10
30765;BMP180;494;48.744;10.106;2023-05-14T12:57:45;95392.00;;;19.20
30765;BMP180;494;48.744;10.106;2023-05-14T13:00:18;95388.00;;;19.30
30765;BMP180;494;48.744;10.106;2023-05-14T13:02:47;95157.00;;;19.10
30765;BMP180;494;48.744;10.106;2023-05-14T13:05:16;95378.00;;;18.90
30765;BMP180;494;48.744;10.106;2023-05-14T13:07:45;95318.00;;;19.00
30765;BMP180;494;48.744;10.106;2023-05-14T13:10:14;95383.00;;;19.20
30765;BMP180;494;48.744;10.106;2023-05-14T13:12:44;95381.00;;;19.50
30765;BMP180;494;48.744;10.106;2023-05-14T13:15:13;95207.00;;;19.40
30765;BMP180;494;48.744;10.106;2023-05-14T13:17:44;95371.00;;;19.30
30765;BMP180;494;48.744;10.106;2023-05-14T13:20:13;95369.00;;;19.10
30765;BMP180;494;48.744;10.106;2023-05-14T13:22:41;95277.00;;;19.30
30765;BMP180;494;48.744;10.106;2023-05-14T13:25:10;95369.00;;;19.50
30765;BMP180;494;48.744;10.106;2023-05-14T13:27:39;95364.00;;;19.20
30765;BMP180;494;48.744;10.106;2023-05-14T13:30:09;95236.00;;;19.40
30765;BMP180;494;48.744;10.106;2023-05-14T13:32:38;95297.00;;;19.80
30765;BMP180;494;48.744;10.106;2023-05-14T13:35:10;95076.00;;;19.60
30765;BMP180;494;48.744;10.106;2023-05-14T13:37:38;95288.00;;;19.70
30765;BMP180;494;48.744;10.106;2023-05-14T13:40:09;95351.00;;;19.60
30765;BMP180;494;48.744;10.106;2023-05-14T13:42:38;95265.00;;;19.50
30765;BMP180;494;48.744;10.106;2023-05-14T13:45:08;95355.00;;;19.40
30765;BMP180;494;48.744;10.106;2023-05-14T13:47:38;95356.00;;;19.60
30765;BMP180;494;48.744;10.106;2023-05-14T13:50:09;95346.00;;;19.30
30765;BMP180;494;48.744;10.106;2023-05-14T13:52:38;95352.00;;;19.20
30765;BMP180;494;48.744;10.106;2023-05-14T13:55:08;95346.00;;;19.10
30765;BMP180;494;48.744;10.106;2023-05-14T13:57:37;95203.00;;;19.30
30765;BMP180;494;48.744;10.106;2023-05-14T14:00:09;95388.00;;;19.00
30765;BMP180;494;48.744;10.106;2023-05-14T14:02:38;95344.00;;;19.10
30765;BMP180;494;48.744;10.106;2023-05-14T14:05:09;95164.00;;;19.00
30765;BMP180;494;48.744;10.106;2023-05-14T14:07:38;95331.00;;;19.60
30765;BMP180;494;48.744;10.106;2023-05-14T14:10:09;95246.00;;;19.70
30765;BMP180;494;48.744;10.106;2023-05-14T14:12:37;95329.00;;;19.80
30765;BMP180;494;48.744;10.106;2023-05-14T14:15:09;95210.00;;;20.00
30765;BMP180;494;48.744;10.106;2023-05-14T14:17:38;95325.00;;;20.50
30765;BMP180;494;48.744;10.106;2023-05-14T14:20:10;95323.00;;;20.90
30765;BMP180;494;48.744;10.106;2023-05-14T14:22:41;95317.00;;;20.90
30765;BMP180;494;48.744;10.106;2023-05-14T14:25:10;95326.00;;;21.40
30765;BMP180;494;48.744;10.106;2023-05-14T14:27:40;95315.00;;;21.90
30765;BMP180;494;48.744;10.106;2023-05-14T14:30:10;95310.00;;;23.10
30765;BMP180;494;48.744;10.106;2023-05-14T14:32:43;95191.00;;;24.60
30765;BMP180;494;48.744;10.106;2023-05-14T14:35:15;95273.00;;;24.80
30765;BMP180;494;48.744;10.106;2023-05-14T14:37:45;95325.00;;;24.20